createdAt,value
2019-05-03T00:01:42.187Z,18.40
2019-05-03T00:04:15.897Z,18.20
2019-05-03T00:06:49.307Z,23.15
2019-05-03T00:09:22.526Z,22.17
2019-05-03T00:11:54.929Z,17.75
2019-05-03T00:14:27.799Z,17.65
2019-05-03T00:17:02.161Z,19.40
2019-05-03T00:19:33.893Z,17.82
2019-05-03T00:22:06.432Z,19.00
2019-05-03T00:24:39.006Z,18.55
2019-05-03T00:27:12.544Z,15.35
2019-05-03T00:29:45.464Z,15.65
2019-05-03T00:32:17.958Z,15.75
2019-05-03T00:34:52.337Z,15.63
2019-05-03T00:37:26.130Z,19.48
2019-05-03T00:40:02.005Z,17.27
2019-05-03T00:42:34.336Z,15.25
2019-05-03T00:45:09.058Z,17.98
2019-05-03T00:47:42.122Z,16.05
2019-05-03T00:50:14.802Z,12.80
2019-05-03T00:52:47.093Z,14.85
2019-05-03T00:55:19.489Z,15.28
2019-05-03T00:57:52.210Z,16.42
2019-05-03T01:00:25.129Z,18.40
2019-05-03T01:02:57.423Z,15.75
2019-05-03T01:05:29.970Z,17.70
2019-05-03T01:08:02.164Z,15.43
2019-05-03T01:10:34.806Z,13.38
2019-05-03T01:13:07.372Z,18.15
2019-05-03T01:15:42.400Z,14.87
2019-05-03T01:18:16.571Z,12.95
2019-05-03T01:20:49.184Z,14.03
2019-05-03T01:23:21.967Z,12.85
2019-05-03T01:25:54.320Z,13.32
2019-05-03T01:28:27.043Z,15.32
2019-05-03T01:30:59.474Z,15.03
2019-05-03T01:33:32.264Z,16.05
2019-05-03T01:36:04.683Z,13.08
2019-05-03T01:38:37.345Z,15.32
2019-05-03T01:41:10.042Z,26.73
2019-05-03T01:43:42.692Z,14.40
2019-05-03T01:46:14.997Z,16.48
2019-05-03T01:48:48.843Z,16.07
2019-05-03T01:51:22.404Z,18.25
2019-05-03T01:53:54.874Z,18.25
2019-05-03T01:56:27.168Z,20.45
2019-05-03T01:59:01.706Z,19.30
2019-05-03T02:01:34.994Z,17.67
2019-05-03T02:04:09.011Z,15.30
2019-05-03T02:06:42.510Z,16.20
2019-05-03T02:09:14.922Z,17.92
2019-05-03T02:11:47.200Z,15.70
2019-05-03T02:14:19.856Z,18.15
2019-05-03T02:16:52.395Z,16.50
2019-05-03T02:19:25.195Z,13.95
2019-05-03T02:21:57.488Z,18.45
2019-05-03T02:24:30.031Z,22.20
2019-05-03T02:27:02.585Z,14.05
2019-05-03T02:29:35.085Z,18.67
2019-05-03T02:32:07.533Z,14.03
2019-05-03T02:34:43.563Z,15.23
2019-05-03T02:37:14.148Z,16.85
2019-05-03T02:39:47.095Z,13.00
2019-05-03T02:42:19.404Z,11.38
2019-05-03T02:44:52.111Z,12.78
2019-05-03T02:47:26.501Z,11.88
2019-05-03T02:50:00.574Z,18.40
2019-05-03T02:52:36.617Z,14.03
2019-05-03T02:55:09.978Z,13.00
2019-05-03T02:57:42.266Z,13.75
2019-05-03T03:00:16.477Z,15.88
2019-05-03T03:02:49.295Z,14.38
2019-05-03T03:05:22.224Z,11.48
2019-05-03T03:07:55.925Z,12.65
2019-05-03T03:10:29.786Z,13.48
2019-05-03T03:13:05.827Z,15.32
2019-05-03T03:15:39.754Z,13.22
2019-05-03T03:18:15.528Z,16.25
2019-05-03T03:20:49.066Z,13.43
2019-05-03T03:23:26.102Z,11.85
2019-05-03T03:25:58.880Z,12.00
2019-05-03T03:28:32.845Z,14.65
2019-05-03T03:31:08.249Z,13.65
2019-05-03T03:33:41.330Z,14.00
2019-05-03T03:36:37.972Z,14.28
2019-05-03T03:38:48.225Z,14.03
2019-05-03T03:41:21.103Z,15.58
2019-05-03T03:43:55.885Z,13.55
2019-05-03T03:46:32.212Z,14.05
2019-05-03T03:49:07.035Z,13.48
2019-05-03T03:51:40.420Z,14.65
2019-05-03T03:54:15.561Z,14.93
2019-05-03T03:56:59.312Z,16.27
2019-05-03T03:59:27.557Z,12.13
2019-05-03T04:02:01.511Z,11.63
2019-05-03T04:04:35.891Z,11.18
2019-05-03T04:07:09.303Z,16.50
2019-05-03T04:09:42.137Z,12.88
2019-05-03T04:12:16.445Z,14.87
2019-05-03T04:14:50.481Z,12.47
2019-05-03T04:17:26.035Z,11.38
2019-05-03T04:20:01.049Z,9.63
2019-05-03T04:22:36.143Z,12.47
2019-05-03T04:25:08.186Z,13.68
2019-05-03T04:27:41.019Z,10.45
2019-05-03T04:30:16.205Z,13.85
2019-05-03T04:32:47.368Z,10.75
2019-05-03T04:35:19.471Z,13.32
2019-05-03T04:37:52.123Z,13.10
2019-05-03T04:40:26.073Z,9.48
2019-05-03T04:42:58.311Z,10.43
2019-05-03T04:45:31.831Z,11.50
2019-05-03T04:48:05.946Z,10.68
2019-05-03T04:50:38.085Z,9.90
2019-05-03T04:53:10.651Z,12.40
2019-05-03T04:55:42.954Z,10.65
2019-05-03T04:58:16.103Z,13.18
2019-05-03T05:00:48.856Z,10.00
2019-05-03T05:03:21.508Z,12.35
2019-05-03T05:05:55.477Z,10.15
2019-05-03T05:08:27.988Z,9.28
2019-05-03T05:11:00.546Z,9.68
2019-05-03T05:13:35.394Z,13.05
2019-05-03T05:16:06.866Z,8.75
2019-05-03T05:18:40.693Z,8.68
2019-05-03T05:21:15.707Z,10.90
2019-05-03T05:23:49.524Z,8.58
2019-05-03T05:26:24.861Z,11.18
2019-05-03T05:28:58.813Z,7.97
2019-05-03T05:31:31.513Z,12.18
2019-05-03T05:34:05.406Z,9.48
2019-05-03T05:36:37.622Z,6.15
2019-05-03T05:39:10.851Z,9.05
2019-05-03T05:41:45.036Z,7.95
2019-05-03T05:44:17.567Z,8.50
2019-05-03T05:46:51.532Z,8.83
2019-05-03T05:49:25.956Z,7.25
2019-05-03T05:51:58.394Z,11.28
2019-05-03T05:54:30.799Z,10.18
2019-05-03T05:57:05.409Z,8.33
2019-05-03T05:59:39.711Z,7.33
2019-05-03T06:02:14.937Z,12.07
2019-05-03T06:04:46.357Z,8.38
2019-05-03T06:07:20.211Z,6.65
2019-05-03T06:09:54.985Z,7.83
2019-05-03T06:12:28.775Z,11.25
2019-05-03T06:15:04.636Z,12.03
2019-05-03T06:17:37.719Z,9.48
2019-05-03T06:20:12.347Z,10.03
2019-05-03T06:22:46.105Z,11.65
2019-05-03T06:25:20.158Z,7.70
2019-05-03T06:27:54.906Z,8.50
2019-05-03T06:30:29.822Z,7.62
2019-05-03T06:33:02.503Z,8.30
2019-05-03T06:35:35.007Z,11.00
2019-05-03T06:38:08.931Z,9.68
2019-05-03T06:40:41.318Z,7.72
2019-05-03T06:43:15.609Z,10.82
2019-05-03T06:45:50.430Z,12.43
2019-05-03T06:48:22.308Z,8.65
2019-05-03T06:50:55.770Z,7.10
2019-05-03T06:53:28.592Z,7.95
2019-05-03T06:56:00.907Z,11.40
2019-05-03T06:58:36.177Z,12.95
2019-05-03T07:01:11.226Z,13.08
2019-05-03T07:03:44.758Z,7.95
2019-05-03T07:06:32.374Z,8.75
2019-05-03T07:08:54.918Z,10.90
2019-05-03T07:11:27.557Z,12.07
2019-05-03T07:14:00.381Z,8.30
2019-05-03T07:16:35.225Z,7.42
2019-05-03T07:19:06.954Z,12.60
2019-05-03T07:21:39.507Z,7.92
2019-05-03T07:24:11.826Z,9.45
2019-05-03T07:26:44.806Z,7.35
2019-05-03T07:29:17.126Z,10.58
2019-05-03T07:31:50.158Z,7.95
2019-05-03T07:34:24.606Z,9.10
2019-05-03T07:36:56.201Z,9.43
2019-05-03T07:39:28.621Z,7.28
2019-05-03T07:42:00.980Z,7.12
2019-05-03T07:44:34.752Z,8.13
2019-05-03T07:47:07.315Z,7.78
2019-05-03T07:49:39.905Z,9.63
2019-05-03T07:52:12.339Z,7.62
2019-05-03T07:54:45.292Z,7.10
2019-05-03T07:57:18.958Z,9.00
2019-05-03T07:59:51.542Z,7.33
2019-05-03T08:02:25.289Z,6.28
2019-05-03T08:04:58.072Z,7.72
2019-05-03T08:07:30.712Z,7.53
2019-05-03T08:10:05.289Z,8.20
2019-05-03T08:12:37.336Z,6.65
2019-05-03T08:15:09.903Z,6.28
2019-05-03T08:17:42.483Z,7.60
2019-05-03T08:20:15.189Z,7.42
2019-05-03T08:22:47.632Z,9.45
2019-05-03T08:25:20.035Z,10.82
2019-05-03T08:27:52.623Z,10.23
2019-05-03T08:30:26.177Z,11.68
2019-05-03T08:33:00.160Z,7.65
2019-05-03T08:35:35.475Z,7.60
2019-05-03T08:38:07.544Z,7.90
2019-05-03T08:40:41.581Z,8.78
2019-05-03T08:43:15.602Z,6.25
2019-05-03T08:45:48.323Z,9.13
2019-05-03T08:48:21.087Z,7.83
2019-05-03T08:50:55.294Z,9.05
2019-05-03T08:53:27.293Z,10.23
2019-05-03T08:55:59.613Z,6.33
2019-05-03T08:58:32.311Z,6.62
2019-05-03T09:01:05.591Z,9.23
2019-05-03T09:03:38.472Z,9.78
2019-05-03T09:06:11.118Z,7.45
2019-05-03T09:08:45.596Z,6.30
2019-05-03T09:11:30.776Z,8.05
2019-05-03T09:13:55.588Z,9.80
2019-05-03T09:16:27.407Z,7.70
2019-05-03T09:18:59.868Z,7.37
2019-05-03T09:21:34.770Z,8.70
2019-05-03T09:24:08.812Z,11.57
2019-05-03T09:26:41.454Z,7.58
2019-05-03T09:29:14.808Z,10.75
2019-05-03T09:31:47.311Z,8.05
2019-05-03T09:34:19.683Z,9.40
2019-05-03T09:36:52.106Z,10.68
2019-05-03T09:39:24.690Z,8.55
2019-05-03T09:41:56.992Z,8.98
2019-05-03T09:44:29.507Z,7.30
2019-05-03T09:47:01.799Z,11.50
2019-05-03T09:49:34.807Z,7.00
2019-05-03T09:52:08.712Z,16.17
2019-05-03T09:54:42.706Z,8.60
2019-05-03T09:57:15.310Z,12.88
2019-05-03T09:59:56.144Z,9.15
2019-05-03T10:02:22.156Z,10.45
2019-05-03T10:04:55.400Z,9.65
2019-05-03T10:07:28.270Z,6.80
2019-05-03T10:10:00.849Z,10.63
2019-05-03T10:12:33.555Z,11.03
2019-05-03T10:15:07.248Z,7.97
2019-05-03T10:17:41.212Z,8.58
2019-05-03T10:20:15.344Z,7.30
2019-05-03T10:22:47.873Z,8.28
2019-05-03T10:25:24.366Z,9.58
2019-05-03T10:27:56.393Z,6.78
2019-05-03T10:30:29.410Z,13.30
2019-05-03T10:33:05.812Z,8.35
2019-05-03T10:35:37.518Z,11.53
2019-05-03T10:38:09.803Z,8.83
2019-05-03T10:40:45.105Z,10.38
2019-05-03T10:43:17.151Z,10.03
2019-05-03T10:45:50.978Z,17.48
2019-05-03T10:48:24.802Z,12.68
2019-05-03T10:50:57.757Z,17.23
2019-05-03T10:53:31.651Z,21.07
2019-05-03T10:56:05.522Z,9.28
2019-05-03T10:58:37.829Z,14.28
2019-05-03T11:01:10.282Z,10.32
2019-05-03T11:03:45.083Z,10.98
